Portada
METAR-TAF:

METAR-TAF

Aeropuertos :

Kufra, Libia

latitud: 24-13N, longitud: 023-18E, altitud: 417 m

METAR: falta

Hora: 18:57 (16:57 UTC)

Pronóstico

El informe se hizo hace 2 horas y 57 minutos, a las 14:00 UTC
Pronóstico válido del 12 a las 15 UTC al 12 a las 24 UTC
Viento 10 kt del norte-noroeste
Visibilidad 10 km o más
sin nubes por debajo de 1500 m y sin presencia de cumulonimbus.

TAF: HLKF 121400Z 1215/1224 33010KT CAVOK

Observaciones y pronósticos meteorológicos de más de 4000 aeropuertos (mensajes METAR y TAF).

Los puntos amarillos y rojos representan las estaciones disponibles.

Ponga el ratón en el punto deseado para ver el nombre de la estación.

Haga clic para ver las observaciones y los pronósticos meteorológicos.

Para cambiar el mapa : haga clic en los botones verdes con una cruz de color negro para hacer un zoom, en el botón verde con un guión para alejar o en las flechas verdes para mapas adyacentes.


METAR-TAF: